createdAt,value
2023-02-16T00:02:16.328Z,146.57
2023-02-16T00:04:44.026Z,141.73
2023-02-16T00:07:11.803Z,150.77
2023-02-16T00:09:39.547Z,124.65
2023-02-16T00:12:37.419Z,159.82
2023-02-16T00:15:18.464Z,147.25
2023-02-16T00:17:46.105Z,144.43
2023-02-16T00:20:18.085Z,153.00
2023-02-16T00:22:45.651Z,140.35
2023-02-16T00:25:13.316Z,145.38
2023-02-16T00:27:41.230Z,144.75
2023-02-16T00:30:21.269Z,140.48
2023-02-16T00:32:50.817Z,154.15
2023-02-16T00:35:21.328Z,150.18
2023-02-16T00:37:52.000Z,146.35
2023-02-16T00:40:22.680Z,148.68
2023-02-16T00:42:50.257Z,152.68
2023-02-16T00:45:20.635Z,165.10
2023-02-16T00:47:51.430Z,161.55
2023-02-16T00:50:21.249Z,160.60
2023-02-16T00:52:53.349Z,150.32
2023-02-16T00:57:57.871Z,144.55
2023-02-16T01:00:53.604Z,158.95
2023-02-16T01:03:29.711Z,161.55
2023-02-16T01:06:16.308Z,170.40
2023-02-16T01:09:02.216Z,149.52
2023-02-16T01:11:32.183Z,157.32
2023-02-16T01:14:00.003Z,148.65
2023-02-16T01:16:38.724Z,143.00
2023-02-16T01:19:06.485Z,163.63
2023-02-16T01:21:34.517Z,155.48
2023-02-16T01:24:02.700Z,145.40
2023-02-16T01:26:39.198Z,165.20
2023-02-16T01:29:12.876Z,141.50
2023-02-16T01:31:40.468Z,148.43
2023-02-16T01:34:08.052Z,151.63
2023-02-16T01:36:41.941Z,143.07
2023-02-16T01:39:17.982Z,151.00
2023-02-16T01:42:00.129Z,162.48
2023-02-16T01:44:30.939Z,146.25
2023-02-16T01:47:31.267Z,149.15
2023-02-16T01:50:18.754Z,144.23
2023-02-16T01:52:58.261Z,155.60
2023-02-16T01:55:31.486Z,150.20
2023-02-16T01:58:05.779Z,153.85
2023-02-16T02:01:06.044Z,155.70
2023-02-16T02:03:55.692Z,163.18
2023-02-16T02:06:32.998Z,153.25
2023-02-16T02:09:11.497Z,155.05
2023-02-16T02:12:11.253Z,152.55
2023-02-16T02:14:40.961Z,175.40
2023-02-16T02:17:17.048Z,159.45
2023-02-16T02:20:14.276Z,157.32
2023-02-16T02:23:06.387Z,162.85
2023-02-16T02:26:02.177Z,141.48
2023-02-16T02:29:07.099Z,135.38
2023-02-16T02:31:47.970Z,159.27
2023-02-16T02:34:27.446Z,161.55
2023-02-16T02:37:09.241Z,152.82
2023-02-16T02:40:01.367Z,139.25
2023-02-16T02:42:58.114Z,158.88
2023-02-16T02:45:41.498Z,153.00
2023-02-16T02:48:09.674Z,166.93
2023-02-16T02:51:19.940Z,163.80
2023-02-16T02:54:14.589Z,187.40
2023-02-16T02:57:09.854Z,191.55
2023-02-16T03:00:01.995Z,203.48
2023-02-16T03:02:32.888Z,201.43
2023-02-16T03:05:02.759Z,215.18
2023-02-16T03:07:47.164Z,227.38
2023-02-16T03:10:39.759Z,206.05
2023-02-16T03:13:30.976Z,199.70
2023-02-16T03:16:02.028Z,187.25
2023-02-16T03:18:49.209Z,187.15
2023-02-16T03:21:35.953Z,185.93
2023-02-16T03:24:27.261Z,175.00
2023-02-16T03:27:14.917Z,188.82
2023-02-16T03:29:43.074Z,179.07
2023-02-16T03:32:13.099Z,191.05
2023-02-16T03:34:40.982Z,213.88
2023-02-16T03:37:11.790Z,186.57
2023-02-16T03:39:57.981Z,264.80
2023-02-16T03:42:25.952Z,233.10
2023-02-16T03:44:56.829Z,217.57
2023-02-16T03:47:27.308Z,211.57
2023-02-16T03:49:54.924Z,217.43
2023-02-16T03:52:22.410Z,203.95
2023-02-16T03:54:50.093Z,200.77
2023-02-16T03:57:17.808Z,198.90
2023-02-16T03:59:48.816Z,197.10
2023-02-16T04:02:16.812Z,195.30
2023-02-16T04:04:44.849Z,200.07
2023-02-16T04:07:12.942Z,175.20
2023-02-16T04:09:40.706Z,201.10
2023-02-16T04:12:27.910Z,190.27
2023-02-16T04:14:55.361Z,195.95
2023-02-16T04:17:22.851Z,203.80
2023-02-16T04:19:50.245Z,193.43
2023-02-16T04:22:17.948Z,149.25
2023-02-16T04:24:45.426Z,182.45
2023-02-16T04:27:12.770Z,170.18
2023-02-16T04:29:43.269Z,179.27
2023-02-16T04:32:11.009Z,173.60
2023-02-16T04:34:38.514Z,193.90
2023-02-16T04:37:07.964Z,154.13
2023-02-16T04:39:35.700Z,161.80
2023-02-16T04:42:03.447Z,145.13
2023-02-16T04:44:30.894Z,138.98
2023-02-16T04:46:58.327Z,122.30
2023-02-16T04:49:25.997Z,121.45
2023-02-16T04:51:53.747Z,112.00
2023-02-16T04:54:21.361Z,107.05
2023-02-16T04:56:49.049Z,101.75
2023-02-16T04:59:17.103Z,92.75
2023-02-16T05:01:47.586Z,115.25
2023-02-16T05:04:16.618Z,102.80
2023-02-16T05:06:44.316Z,84.57
2023-02-16T05:09:14.691Z,94.10
2023-02-16T05:12:00.984Z,83.45
2023-02-16T05:14:44.614Z,91.18
2023-02-16T05:17:21.998Z,84.65
2023-02-16T05:19:52.387Z,95.88
2023-02-16T05:22:20.890Z,87.40
2023-02-16T05:24:52.042Z,79.35
2023-02-16T05:27:23.880Z,74.82
2023-02-16T05:29:51.769Z,87.20
2023-02-16T05:32:19.295Z,107.47
2023-02-16T05:34:46.787Z,93.55
2023-02-16T05:37:16.350Z,106.07
2023-02-16T05:39:43.766Z,96.35
2023-02-16T05:42:11.212Z,96.65
2023-02-16T05:44:39.109Z,95.53
2023-02-16T05:47:06.554Z,86.47
2023-02-16T05:49:36.947Z,82.50
2023-02-16T05:52:04.508Z,86.38
2023-02-16T05:54:38.098Z,83.15
2023-02-16T05:57:05.731Z,69.90
2023-02-16T05:59:33.377Z,84.68
2023-02-16T06:02:00.582Z,71.53
2023-02-16T06:04:28.764Z,70.18
2023-02-16T06:06:56.142Z,73.30
2023-02-16T06:09:23.265Z,64.88
2023-02-16T06:11:50.408Z,64.55
2023-02-16T06:14:19.616Z,64.90
2023-02-16T06:16:53.495Z,71.03
2023-02-16T06:19:21.576Z,73.63
2023-02-16T06:21:49.243Z,68.63
2023-02-16T06:24:16.742Z,64.80
2023-02-16T06:26:44.402Z,65.90
2023-02-16T06:29:11.922Z,74.22
2023-02-16T06:31:39.383Z,65.88
2023-02-16T06:34:07.348Z,73.93
2023-02-16T06:36:34.954Z,72.72
2023-02-16T06:39:03.269Z,76.55
2023-02-16T06:41:40.209Z,70.95
2023-02-16T06:44:13.973Z,87.63
2023-02-16T06:46:43.711Z,76.70
2023-02-16T06:49:20.146Z,82.50
2023-02-16T06:51:49.292Z,83.25
2023-02-16T06:54:17.688Z,75.97
2023-02-16T06:56:45.238Z,81.28
2023-02-16T06:59:13.346Z,73.25
2023-02-16T07:01:40.707Z,71.93
2023-02-16T07:04:08.289Z,80.95
2023-02-16T07:06:35.884Z,66.95
2023-02-16T07:09:04.070Z,64.32
2023-02-16T07:11:31.772Z,59.33
2023-02-16T07:14:02.397Z,50.33
2023-02-16T07:16:30.314Z,52.88
2023-02-16T07:18:57.817Z,54.67
2023-02-16T07:21:28.230Z,52.58
2023-02-16T07:23:55.655Z,52.75
2023-02-16T07:26:27.136Z,61.35
2023-02-16T07:28:54.727Z,53.38
2023-02-16T07:31:22.291Z,51.20
2023-02-16T07:33:52.609Z,52.65
2023-02-16T07:36:20.036Z,60.72
2023-02-16T07:38:47.256Z,53.88
2023-02-16T07:41:14.649Z,50.15
2023-02-16T07:43:43.154Z,54.40
2023-02-16T07:46:11.235Z,51.00
2023-02-16T07:48:38.477Z,52.33
2023-02-16T07:51:06.336Z,58.35
2023-02-16T07:53:34.053Z,49.63
2023-02-16T07:56:01.559Z,57.40
2023-02-16T07:58:31.429Z,48.70
2023-02-16T08:01:11.248Z,69.18
2023-02-16T08:03:39.038Z,68.55
2023-02-16T08:06:07.651Z,58.10
2023-02-16T08:08:38.450Z,53.80
2023-02-16T08:11:13.171Z,58.22
2023-02-16T08:13:40.837Z,52.42
2023-02-16T08:16:12.730Z,61.63
2023-02-16T08:18:41.896Z,62.37
2023-02-16T08:21:18.763Z,74.00
2023-02-16T08:23:58.842Z,59.85
2023-02-16T08:26:29.438Z,65.40
2023-02-16T08:28:58.902Z,75.18
2023-02-16T08:31:30.260Z,81.28
2023-02-16T08:34:00.592Z,86.10
2023-02-16T08:36:33.150Z,70.97
2023-02-16T08:39:04.580Z,73.03
2023-02-16T08:41:34.577Z,77.93
2023-02-16T08:44:03.081Z,82.65
2023-02-16T08:46:32.560Z,76.82
2023-02-16T08:49:01.145Z,72.63
2023-02-16T08:51:34.946Z,70.10
2023-02-16T08:54:05.974Z,82.70
2023-02-16T08:56:34.512Z,80.80
2023-02-16T08:59:02.062Z,68.40
2023-02-16T09:01:29.497Z,82.13
2023-02-16T09:03:56.851Z,77.82
2023-02-16T09:06:24.109Z,78.93
2023-02-16T09:08:57.794Z,84.88
2023-02-16T09:11:25.662Z,73.97
2023-02-16T09:13:53.363Z,75.57
2023-02-16T09:16:22.942Z,72.60
2023-02-16T09:18:51.108Z,67.55
2023-02-16T09:21:21.668Z,68.10
2023-02-16T09:23:50.735Z,84.38
2023-02-16T09:26:20.315Z,72.53
2023-02-16T09:28:49.132Z,77.45
2023-02-16T09:31:20.512Z,71.20
2023-02-16T09:33:47.728Z,78.70
2023-02-16T09:36:14.952Z,79.47
2023-02-16T09:38:43.244Z,73.00
2023-02-16T09:41:25.511Z,91.15
2023-02-16T09:44:01.055Z,71.35
2023-02-16T09:46:31.231Z,84.30
2023-02-16T09:49:00.426Z,78.40
2023-02-16T09:51:35.145Z,85.18
2023-02-16T09:54:43.130Z,75.53
2023-02-16T09:57:31.504Z,99.47
2023-02-16T10:00:16.575Z,94.07
2023-02-16T10:02:54.243Z,96.55
2023-02-16T10:05:31.197Z,93.57
2023-02-16T10:08:15.755Z,90.22
2023-02-16T10:10:51.878Z,91.35
2023-02-16T10:13:42.569Z,96.97
2023-02-16T10:16:17.360Z,97.32
2023-02-16T10:18:50.736Z,105.05
2023-02-16T10:21:23.464Z,87.53
2023-02-16T10:24:06.877Z,72.32
2023-02-16T10:26:39.755Z,95.55
2023-02-16T10:31:48.634Z,93.53
2023-02-16T10:34:30.583Z,107.18
2023-02-16T10:37:36.681Z,96.45
2023-02-16T10:40:26.393Z,80.68
2023-02-16T10:43:14.289Z,72.20
2023-02-16T10:45:56.566Z,73.43
2023-02-16T10:48:24.389Z,64.20
2023-02-16T10:50:59.336Z,63.05
2023-02-16T10:53:38.275Z,66.72
2023-02-16T10:56:43.390Z,66.93
2023-02-16T10:59:22.421Z,63.03
2023-02-16T11:01:59.384Z,67.60
2023-02-16T11:04:45.360Z,64.10
2023-02-16T11:07:18.884Z,63.45
2023-02-16T11:09:55.627Z,66.65
2023-02-16T11:12:34.304Z,69.30
2023-02-16T11:15:14.135Z,84.25
2023-02-16T11:17:57.289Z,72.60
2023-02-16T11:23:18.087Z,69.40
2023-02-16T11:26:11.980Z,70.20
2023-02-16T11:28:47.986Z,70.53
2023-02-16T11:31:31.801Z,77.97
2023-02-16T11:34:06.516Z,55.83
2023-02-16T11:36:44.076Z,54.53
2023-02-16T11:39:17.363Z,50.47
2023-02-16T11:41:53.882Z,48.35
2023-02-16T11:44:33.829Z,49.47
2023-02-16T11:47:08.643Z,49.08
2023-02-16T11:49:40.638Z,44.50
2023-02-16T11:52:27.969Z,45.87
2023-02-16T11:54:58.275Z,53.75
2023-02-16T11:57:31.986Z,53.40
2023-02-16T12:00:02.022Z,51.90
2023-02-16T12:03:21.809Z,52.60
2023-02-16T12:06:10.714Z,42.67
2023-02-16T12:09:01.891Z,51.13
2023-02-16T12:11:45.135Z,56.72
2023-02-16T12:14:34.556Z,54.00
2023-02-16T12:17:17.783Z,52.28
2023-02-16T12:19:48.120Z,48.45
2023-02-16T12:22:33.630Z,48.97
2023-02-16T12:25:23.852Z,52.30
2023-02-16T12:28:29.316Z,52.78
2023-02-16T12:31:00.577Z,48.63
2023-02-16T12:33:38.926Z,51.97
2023-02-16T12:36:20.484Z,54.67
2023-02-16T12:38:56.970Z,55.70
2023-02-16T12:41:50.572Z,48.20
2023-02-16T12:44:44.717Z,57.95
2023-02-16T12:47:20.201Z,51.85
2023-02-16T12:49:53.133Z,47.38
2023-02-16T12:55:08.238Z,54.13
2023-02-16T12:57:35.900Z,51.83
2023-02-16T13:00:18.650Z,53.67
2023-02-16T13:02:51.828Z,49.53
2023-02-16T13:05:28.758Z,57.55
2023-02-16T13:08:06.547Z,54.97
2023-02-16T13:10:54.785Z,51.97
2023-02-16T13:13:34.479Z,50.58
2023-02-16T13:16:32.377Z,51.08
2023-02-16T13:18:59.739Z,52.00
2023-02-16T13:22:09.193Z,50.63
2023-02-16T13:24:59.106Z,46.67
2023-02-16T13:28:11.648Z,42.63
2023-02-16T13:30:38.950Z,42.85
2023-02-16T13:33:40.964Z,49.65
2023-02-16T13:36:21.605Z,48.15
2023-02-16T13:39:03.756Z,48.60
2023-02-16T13:41:33.867Z,43.83
2023-02-16T13:44:10.219Z,50.20
2023-02-16T13:46:53.032Z,44.75
2023-02-16T13:49:57.043Z,50.65
2023-02-16T13:52:42.633Z,50.72
2023-02-16T13:55:23.224Z,51.47
2023-02-16T13:57:58.538Z,51.60
2023-02-16T14:00:44.007Z,56.50
2023-02-16T14:03:23.042Z,53.53
2023-02-16T14:05:52.448Z,51.80
2023-02-16T14:08:28.852Z,64.25
2023-02-16T14:11:22.026Z,64.50
2023-02-16T14:13:50.850Z,56.63
2023-02-16T14:16:18.060Z,58.35
2023-02-16T14:18:54.171Z,66.22
2023-02-16T14:21:36.658Z,65.32
2023-02-16T14:24:06.513Z,72.00
2023-02-16T14:26:55.795Z,60.60
2023-02-16T14:29:46.427Z,68.18
2023-02-16T14:32:23.483Z,67.85
2023-02-16T14:35:05.666Z,57.15
2023-02-16T14:37:49.721Z,54.38
2023-02-16T14:40:18.674Z,56.83
2023-02-16T14:42:53.892Z,65.53
2023-02-16T14:45:50.356Z,58.83
2023-02-16T14:48:36.367Z,62.65
2023-02-16T14:51:22.292Z,60.78
2023-02-16T14:53:55.642Z,57.58
2023-02-16T14:56:42.926Z,60.72
2023-02-16T14:59:38.926Z,57.33
2023-02-16T15:02:33.940Z,64.65
2023-02-16T15:05:19.339Z,108.25
2023-02-16T15:07:58.461Z,105.35
2023-02-16T15:10:28.208Z,73.20
2023-02-16T15:12:56.910Z,64.88
2023-02-16T15:15:45.160Z,49.97
2023-02-16T15:18:17.754Z,47.88
2023-02-16T15:20:48.562Z,46.35
2023-02-16T15:23:25.347Z,48.72
2023-02-16T15:26:15.068Z,48.92
2023-02-16T15:28:43.367Z,47.00
2023-02-16T15:31:19.109Z,48.92
2023-02-16T15:33:58.902Z,58.17
2023-02-16T15:36:35.993Z,65.15
2023-02-16T15:39:16.249Z,100.88
2023-02-16T15:41:50.418Z,75.05
2023-02-16T15:44:34.622Z,82.20
2023-02-16T15:47:14.679Z,78.47
2023-02-16T15:49:42.665Z,66.13
2023-02-16T15:52:36.044Z,53.35
2023-02-16T15:55:11.730Z,52.30
2023-02-16T15:57:41.879Z,47.70
2023-02-16T16:00:22.060Z,54.60
2023-02-16T16:02:58.809Z,46.33
2023-02-16T16:05:33.232Z,52.95
2023-02-16T16:08:01.766Z,54.80
2023-02-16T16:10:34.222Z,55.30
2023-02-16T16:13:07.918Z,59.75
2023-02-16T16:15:40.980Z,59.72
2023-02-16T16:18:43.875Z,61.17
2023-02-16T16:21:36.833Z,52.97
2023-02-16T16:24:10.629Z,56.75
2023-02-16T16:26:55.929Z,55.75
2023-02-16T16:29:48.308Z,73.65
2023-02-16T16:32:25.675Z,82.75
2023-02-16T16:34:53.633Z,83.78
2023-02-16T16:37:33.992Z,80.32
2023-02-16T16:40:11.625Z,74.30
2023-02-16T16:43:02.400Z,76.25
2023-02-16T16:45:44.760Z,76.35
2023-02-16T16:48:26.405Z,69.07
2023-02-16T16:51:15.891Z,71.00
2023-02-16T16:53:57.975Z,70.07
2023-02-16T16:56:25.913Z,50.03
2023-02-16T16:58:59.184Z,66.28
2023-02-16T17:01:29.217Z,66.90
2023-02-16T17:03:58.507Z,77.18
2023-02-16T17:06:26.867Z,82.65
2023-02-16T17:08:56.865Z,66.78
2023-02-16T17:11:30.378Z,63.53
2023-02-16T17:14:15.424Z,70.25
2023-02-16T17:16:46.402Z,84.75
2023-02-16T17:19:18.725Z,72.57
2023-02-16T17:21:48.357Z,69.88
2023-02-16T17:24:16.626Z,64.72
2023-02-16T17:26:45.975Z,70.85
2023-02-16T17:29:14.425Z,70.35
2023-02-16T17:31:42.806Z,73.05
2023-02-16T17:34:10.869Z,74.35
2023-02-16T17:36:39.426Z,68.68
2023-02-16T17:39:08.958Z,76.82
2023-02-16T17:41:37.243Z,82.03
2023-02-16T17:44:05.393Z,82.13
2023-02-16T17:46:35.422Z,79.10
2023-02-16T17:49:05.060Z,86.47
2023-02-16T17:51:39.646Z,86.22
2023-02-16T17:54:12.477Z,88.78
2023-02-16T17:59:08.910Z,88.05
2023-02-16T18:01:38.342Z,90.30
2023-02-16T18:04:06.704Z,100.82
2023-02-16T18:06:34.690Z,93.47
2023-02-16T18:09:03.849Z,106.75
2023-02-16T18:11:33.245Z,87.65
2023-02-16T18:14:01.673Z,96.35
2023-02-16T18:16:30.684Z,103.55
2023-02-16T18:19:00.227Z,96.38
2023-02-16T18:21:28.688Z,106.78
2023-02-16T18:23:56.577Z,109.60
2023-02-16T18:26:25.858Z,107.88
2023-02-16T18:28:54.759Z,100.97
2023-02-16T18:31:23.817Z,108.35
2023-02-16T18:33:52.301Z,98.15
2023-02-16T18:36:21.782Z,105.55
2023-02-16T18:38:50.251Z,91.65
2023-02-16T18:41:18.757Z,108.10
2023-02-16T18:43:47.237Z,113.20
2023-02-16T18:46:15.266Z,120.75
2023-02-16T18:48:43.422Z,101.22
2023-02-16T18:51:13.125Z,116.65
2023-02-16T18:53:41.563Z,113.03
2023-02-16T18:56:12.079Z,108.00
2023-02-16T18:58:40.157Z,112.85
2023-02-16T19:01:27.828Z,121.13
2023-02-16T19:03:56.700Z,110.57
2023-02-16T19:06:25.062Z,122.97
2023-02-16T19:08:53.661Z,123.15
2023-02-16T19:11:22.262Z,120.57
2023-02-16T19:13:51.037Z,132.02
2023-02-16T19:16:25.638Z,138.80
2023-02-16T19:18:54.402Z,117.00
2023-02-16T19:21:22.877Z,136.15
2023-02-16T19:23:51.679Z,122.80
2023-02-16T19:26:21.239Z,145.52
2023-02-16T19:28:49.743Z,173.10
2023-02-16T19:31:24.958Z,186.95
2023-02-16T19:33:55.171Z,260.40
2023-02-16T19:36:24.628Z,243.48
2023-02-16T19:38:54.068Z,236.02
2023-02-16T19:41:29.241Z,218.82
2023-02-16T19:43:57.869Z,193.13
2023-02-16T19:46:27.514Z,117.40
2023-02-16T19:48:58.289Z,123.50
2023-02-16T19:51:28.419Z,155.57
2023-02-16T19:53:56.905Z,138.75
2023-02-16T19:56:26.671Z,157.68
2023-02-16T19:59:00.248Z,144.93
2023-02-16T20:01:29.840Z,172.45
2023-02-16T20:03:59.231Z,162.05
2023-02-16T20:06:30.867Z,134.60
2023-02-16T20:09:01.843Z,160.85
2023-02-16T20:11:31.163Z,167.57
2023-02-16T20:14:01.710Z,147.07
2023-02-16T20:16:30.981Z,145.90
2023-02-16T20:19:00.337Z,147.35
2023-02-16T20:21:29.735Z,134.70
2023-02-16T20:24:03.790Z,112.75
2023-02-16T20:26:35.495Z,116.65
2023-02-16T20:29:05.373Z,110.97
2023-02-16T20:31:45.548Z,119.15
2023-02-16T20:34:15.211Z,111.70
2023-02-16T20:36:43.193Z,110.25
2023-02-16T20:39:11.127Z,110.47
2023-02-16T20:41:38.884Z,112.30
2023-02-16T20:44:07.156Z,109.38
2023-02-16T20:46:35.430Z,109.22
2023-02-16T20:49:04.665Z,130.98
2023-02-16T20:51:33.999Z,118.07
2023-02-16T20:54:03.008Z,105.30
2023-02-16T20:56:32.430Z,119.75
2023-02-16T20:59:02.039Z,129.35
2023-02-16T21:01:44.004Z,124.70
2023-02-16T21:04:16.945Z,115.05
2023-02-16T21:06:44.824Z,123.45
2023-02-16T21:09:14.606Z,129.38
2023-02-16T21:11:45.257Z,128.88
2023-02-16T21:14:13.761Z,130.38
2023-02-16T21:16:42.224Z,136.05
2023-02-16T21:19:22.258Z,123.55
2023-02-16T21:21:51.091Z,131.75
2023-02-16T21:24:18.986Z,130.15
2023-02-16T21:26:46.956Z,127.68
2023-02-16T21:29:17.442Z,124.68
2023-02-16T21:31:44.954Z,128.10
2023-02-16T21:34:12.385Z,121.68
2023-02-16T21:36:39.843Z,138.75
2023-02-16T21:39:08.283Z,120.32
2023-02-16T21:41:35.546Z,143.95
2023-02-16T21:44:07.680Z,146.95
2023-02-16T21:46:37.778Z,122.78
2023-02-16T21:49:06.482Z,129.20
2023-02-16T21:51:35.977Z,122.30
2023-02-16T21:54:09.632Z,117.53
2023-02-16T21:56:42.642Z,124.55
2023-02-16T22:01:47.286Z,97.88
2023-02-16T22:04:17.022Z,114.38
2023-02-16T22:06:47.587Z,109.53
2023-02-16T22:09:17.909Z,117.38
2023-02-16T22:11:46.652Z,116.45
2023-02-16T22:14:13.837Z,115.47
2023-02-16T22:16:41.078Z,112.35
2023-02-16T22:19:11.793Z,102.65
2023-02-16T22:21:41.038Z,114.93
2023-02-16T22:24:11.064Z,111.97
2023-02-16T22:26:38.498Z,105.38
2023-02-16T22:29:07.176Z,112.43
2023-02-16T22:31:35.331Z,112.25
2023-02-16T22:34:07.747Z,143.25
2023-02-16T22:36:36.733Z,135.07
2023-02-16T22:39:04.537Z,126.53
2023-02-16T22:41:31.619Z,121.22
2023-02-16T22:44:02.134Z,129.05
2023-02-16T22:46:30.058Z,125.43
2023-02-16T22:48:58.676Z,111.82
2023-02-16T22:51:30.538Z,110.35
2023-02-16T22:53:59.261Z,106.90
2023-02-16T22:56:27.360Z,92.22
2023-02-16T22:58:57.541Z,97.65
2023-02-16T23:01:26.408Z,97.25
2023-02-16T23:03:58.542Z,88.50
2023-02-16T23:06:37.109Z,93.72
2023-02-16T23:09:07.987Z,107.32
2023-02-16T23:11:36.228Z,109.97
2023-02-16T23:14:03.927Z,125.53
2023-02-16T23:16:31.231Z,115.28
2023-02-16T23:18:59.787Z,117.68
2023-02-16T23:21:29.290Z,116.72
2023-02-16T23:23:57.497Z,117.85
2023-02-16T23:26:26.796Z,128.80
2023-02-16T23:28:55.648Z,121.30
2023-02-16T23:31:23.215Z,121.15
2023-02-16T23:33:50.944Z,106.25
2023-02-16T23:36:18.411Z,114.55
2023-02-16T23:38:45.452Z,115.28
2023-02-16T23:41:13.849Z,128.45
2023-02-16T23:43:41.226Z,126.30
2023-02-16T23:46:09.591Z,116.70
2023-02-16T23:48:37.097Z,128.70
2023-02-16T23:51:04.467Z,134.35
2023-02-16T23:53:31.568Z,129.20
2023-02-16T23:56:01.677Z,140.13
2023-02-16T23:58:30.646Z,124.18
